Time;durP1;ratioP1;P1;durP2;ratioP2;P2;SDS_P1;SDS_P2;PMS_P1;PMS_P2;Temp;Humidity;BMP_temperature;BMP_pressure;BME280_temperature;BME280_humidity;BME280_pressure;Samples;Min_cycle;Max_cycle;Signal;HPM_P1;HPM_P2
2023/05/15 00:01:13;;;;;;;914.43;841.00;;;12.10;99.90;;;;;;5091102;28;20456;-66
2023/05/15 00:03:40;;;;;;;894.23;816.40;;;12.10;99.90;;;;;;5091562;28;20504;-66
2023/05/15 00:06:07;;;;;;;887.67;808.30;;;12.20;99.90;;;;;;5093277;28;20839;-66
2023/05/15 00:08:34;;;;;;;876.17;795.20;;;12.10;99.90;;;;;;5091648;28;20458;-66
2023/05/15 00:11:00;;;;;;;872.33;791.47;;;12.20;99.90;;;;;;5090666;28;20452;-66
2023/05/15 00:13:27;;;;;;;875.60;791.30;;;12.20;99.90;;;;;;5091335;28;20453;-66
2023/05/15 00:15:55;;;;;;;869.23;784.30;;;12.20;99.90;;;;;;5093067;28;20450;-66
2023/05/15 00:18:22;;;;;;;863.20;780.13;;;12.10;99.90;;;;;;5091599;28;20449;-66
2023/05/15 00:20:49;;;;;;;875.97;790.87;;;12.20;99.90;;;;;;5092401;28;20453;-66
2023/05/15 00:23:16;;;;;;;870.77;786.37;;;12.20;99.90;;;;;;5095290;28;20501;-66
2023/05/15 00:25:43;;;;;;;873.20;787.97;;;12.10;99.90;;;;;;5097106;28;20457;-66
2023/05/15 00:28:10;;;;;;;860.13;776.23;;;12.20;99.90;;;;;;5095916;28;20449;-66
2023/05/15 00:30:37;;;;;;;859.40;775.70;;;12.20;99.90;;;;;;5094553;28;20453;-66
2023/05/15 00:33:05;;;;;;;852.50;767.17;;;12.20;99.90;;;;;;5095106;28;20460;-66
2023/05/15 00:35:32;;;;;;;856.13;767.20;;;12.30;99.90;;;;;;5096400;28;20456;-66
2023/05/15 00:37:59;;;;;;;862.23;773.73;;;12.30;99.90;;;;;;5095687;28;20454;-66
2023/05/15 00:40:27;;;;;;;855.67;767.87;;;12.40;99.90;;;;;;5094388;28;20457;-66
2023/05/15 00:42:54;;;;;;;861.53;773.47;;;12.40;99.90;;;;;;5094559;28;20474;-67
2023/05/15 00:45:22;;;;;;;866.07;776.97;;;12.50;99.90;;;;;;5096700;28;20811;-66
2023/05/15 00:47:50;;;;;;;863.77;776.53;;;12.60;99.90;;;;;;5095516;28;20453;-66
2023/05/15 00:50:18;;;;;;;882.30;793.95;;;12.70;99.90;;;;;;5094406;28;20454;-66
2023/05/15 00:52:46;;;;;;;879.60;793.70;;;12.80;99.90;;;;;;5094433;28;20195;-66
2023/05/15 00:55:12;;;;;;;896.57;811.10;;;12.90;99.90;;;;;;5095704;28;20453;-64
2023/05/15 00:57:41;;;;;;;901.77;818.10;;;13.00;99.90;;;;;;5095466;28;20453;-64
2023/05/15 01:00:09;;;;;;;897.43;815.00;;;13.00;99.90;;;;;;5093407;28;20944;-64
2023/05/15 01:02:36;;;;;;;906.92;826.20;;;13.00;99.90;;;;;;5093918;28;20473;-64
2023/05/15 01:05:03;;;;;;;902.30;824.93;;;13.10;99.90;;;;;;5095604;28;20238;-67
2023/05/15 01:07:36;;;;;;;896.65;822.88;;;13.20;99.90;;;;;;5095838;28;20438;-66
2023/05/15 01:10:04;;;;;;;878.22;809.83;;;13.20;99.90;;;;;;5093974;28;20196;-67
2023/05/15 01:12:32;;;;;;;874.97;808.97;;;13.30;99.90;;;;;;5094257;28;20196;-66
2023/05/15 01:14:59;;;;;;;856.05;792.58;;;13.20;99.90;;;;;;5095690;28;20461;-66
2023/05/15 01:17:26;;;;;;;844.40;781.77;;;13.20;99.90;;;;;;5095592;28;20261;-66
2023/05/15 01:19:53;;;;;;;856.13;795.40;;;13.30;99.90;;;;;;5087061;28;20815;-67
2023/05/15 01:22:37;;;;;;;836.13;776.53;;;13.30;99.90;;;;;;5074059;28;20801;-64
2023/05/15 01:25:46;;;;;;;822.37;764.20;;;13.30;99.90;;;;;;5075363;28;20440;-64
2023/05/15 01:28:19;;;;;;;795.53;740.83;;;13.30;99.90;;;;;;5074312;28;20865;-64
2023/05/15 01:30:49;;;;;;;762.57;710.97;;;13.40;99.90;;;;;;5073376;28;20450;-64
2023/05/15 01:33:25;;;;;;;739.20;688.27;;;13.30;99.90;;;;;;5074758;28;20442;-64
2023/05/15 01:35:59;;;;;;;716.57;665.97;;;13.40;99.90;;;;;;5075708;28;20426;-64
2023/05/15 01:38:33;;;;;;;706.97;658.70;;;13.40;99.90;;;;;;5073883;28;20446;-64
2023/05/15 01:41:05;;;;;;;722.20;674.10;;;13.30;99.90;;;;;;5073269;28;20445;-64
2023/05/15 01:43:38;;;;;;;686.83;641.00;;;13.40;99.90;;;;;;5073294;28;20485;-64
2023/05/15 01:46:07;;;;;;;667.63;623.90;;;13.40;99.90;;;;;;5075403;28;20435;-64
2023/05/15 01:48:35;;;;;;;659.07;616.50;;;13.30;99.90;;;;;;5073453;28;20450;-64
2023/05/15 01:51:04;;;;;;;644.13;602.27;;;13.30;99.90;;;;;;5073123;28;20477;-64
2023/05/15 01:53:33;;;;;;;647.38;607.78;;;13.30;99.90;;;;;;5073402;28;20450;-66
2023/05/15 01:56:00;;;;;;;632.53;594.33;;;13.40;99.90;;;;;;5075282;28;20197;-66
2023/05/15 01:58:28;;;;;;;607.77;571.47;;;13.30;99.90;;;;;;5073568;28;20450;-67
2023/05/15 02:00:56;;;;;;;604.00;568.80;;;13.40;99.90;;;;;;5072834;28;20462;-66
2023/05/15 02:03:23;;;;;;;574.10;541.75;;;13.40;99.90;;;;;;5073120;28;20485;-67
2023/05/15 02:05:52;;;;;;;532.63;503.70;;;13.40;99.90;;;;;;5083957;28;20203;-67
2023/05/15 02:08:19;;;;;;;502.23;475.53;;;13.30;99.90;;;;;;5093795;28;20554;-66
2023/05/15 02:10:47;;;;;;;487.37;461.47;;;13.40;99.90;;;;;;5092931;28;20631;-66
2023/05/15 02:13:14;;;;;;;464.70;441.47;;;13.20;99.90;;;;;;5093568;28;20449;-66
2023/05/15 02:15:41;;;;;;;450.13;428.17;;;13.20;99.90;;;;;;5095014;28;20454;-66
2023/05/15 02:18:10;;;;;;;417.30;397.70;;;13.20;99.90;;;;;;5093612;28;20457;-67
2023/05/15 02:20:36;;;;;;;364.60;349.00;;;13.20;99.90;;;;;;5092251;28;20454;-66
2023/05/15 02:23:03;;;;;;;335.80;321.23;;;13.10;99.90;;;;;;5092689;28;20499;-67
2023/05/15 02:25:38;;;;;;;312.10;298.58;;;13.10;99.90;;;;;;5094629;28;20811;-66
2023/05/15 02:28:07;;;;;;;335.97;321.27;;;13.10;99.90;;;;;;5093573;28;20453;-66
2023/05/15 02:30:46;;;;;;;354.33;338.53;;;13.00;99.90;;;;;;5092008;28;20441;-67
2023/05/15 02:33:31;;;;;;;369.30;352.80;;;13.00;99.90;;;;;;5092787;28;20438;-66
2023/05/15 02:36:02;;;;;;;391.03;373.67;;;12.90;99.90;;;;;;5094888;28;20434;-66
2023/05/15 02:38:33;;;;;;;373.15;357.15;;;12.90;99.90;;;;;;5092976;28;20450;-66
2023/05/15 02:41:01;;;;;;;366.67;350.73;;;13.00;99.90;;;;;;5092296;28;20198;-67
2023/05/15 02:43:29;;;;;;;355.10;338.50;;;12.80;99.90;;;;;;5092226;28;20484;-66
2023/05/15 02:45:56;;;;;;;380.03;362.67;;;12.80;99.90;;;;;;5094497;28;20449;-66
2023/05/15 02:48:26;;;;;;;356.27;340.90;;;12.80;99.90;;;;;;5092694;28;20461;-66
2023/05/15 02:50:53;;;;;;;352.23;337.10;;;12.80;99.90;;;;;;5092056;28;20192;-67
2023/05/15 02:53:20;;;;;;;384.30;367.10;;;12.80;99.90;;;;;;5092458;28;20445;-66
2023/05/15 02:55:47;;;;;;;425.00;405.07;;;12.70;99.90;;;;;;5094286;28;20465;-66
2023/05/15 02:58:14;;;;;;;449.37;426.27;;;12.70;99.90;;;;;;5092685;28;20992;-66
2023/05/15 03:00:41;;;;;;;457.97;433.60;;;12.60;99.90;;;;;;5091735;28;20482;-66
2023/05/15 03:03:08;;;;;;;457.00;432.07;;;12.60;99.90;;;;;;5092512;28;20497;-66
2023/05/15 03:05:36;;;;;;;480.63;453.80;;;12.50;99.90;;;;;;5093772;28;20461;-66
2023/05/15 03:08:03;;;;;;;472.70;445.47;;;12.60;99.90;;;;;;5092674;28;20454;-66
2023/05/15 03:10:29;;;;;;;462.67;437.87;;;12.60;99.90;;;;;;5077267;28;20799;-66
2023/05/15 03:12:58;;;;;;;459.73;433.77;;;12.60;99.90;;;;;;5071717;28;20457;-66
2023/05/15 03:15:24;;;;;;;448.47;424.37;;;12.60;99.90;;;;;;5073826;28;20821;-66
2023/05/15 03:17:51;;;;;;;465.53;439.03;;;12.60;99.90;;;;;;5072846;28;20465;-67
2023/05/15 03:20:18;;;;;;;463.23;437.80;;;12.60;99.90;;;;;;5083391;28;20450;-66
2023/05/15 03:22:46;;;;;;;461.93;435.67;;;12.50;99.90;;;;;;5091975;28;20446;-66
2023/05/15 03:25:13;;;;;;;463.08;438.15;;;12.50;99.90;;;;;;5093074;28;20453;-66
2023/05/15 03:27:40;;;;;;;449.93;424.87;;;12.50;99.90;;;;;;5092499;28;20195;-66
2023/05/15 03:30:08;;;;;;;457.30;431.07;;;12.60;99.90;;;;;;5086394;28;20462;-66
2023/05/15 03:32:34;;;;;;;476.07;447.87;;;12.50;99.90;;;;;;5084972;28;20460;-66
2023/05/15 03:35:01;;;;;;;495.17;464.83;;;12.40;99.90;;;;;;5092881;28;20929;-66
2023/05/15 03:37:28;;;;;;;481.83;453.53;;;12.40;99.90;;;;;;5093034;28;20450;-67
2023/05/15 03:39:56;;;;;;;475.03;447.47;;;12.30;99.90;;;;;;5089402;28;20921;-67
2023/05/15 03:42:23;;;;;;;478.60;450.70;;;12.40;99.90;;;;;;5091930;28;20449;-66
2023/05/15 03:44:50;;;;;;;460.70;433.73;;;12.30;99.90;;;;;;5081284;28;20482;-68
2023/05/15 03:47:17;;;;;;;473.03;443.63;;;12.40;99.90;;;;;;5076251;28;20450;-67
2023/05/15 03:49:45;;;;;;;471.10;442.80;;;12.40;99.90;;;;;;5084857;28;20850;-65
2023/05/15 03:52:12;;;;;;;455.10;427.70;;;12.40;99.90;;;;;;5079933;28;20451;-65
2023/05/15 03:54:39;;;;;;;433.30;409.10;;;12.30;99.90;;;;;;5076111;28;20446;-65
2023/05/15 03:57:07;;;;;;;424.75;402.33;;;12.30;99.90;;;;;;5076965;28;20461;-64
2023/05/15 03:59:34;;;;;;;418.90;396.90;;;12.40;99.90;;;;;;5080126;28;20189;-65
2023/05/15 04:02:01;;;;;;;368.07;349.57;;;12.40;99.90;;;;;;5077683;28;20940;-64
2023/05/15 04:04:28;;;;;;;382.63;363.13;;;12.30;99.90;;;;;;5089372;28;20466;-64
2023/05/15 04:06:54;;;;;;;376.30;357.23;;;12.30;99.90;;;;;;5096977;28;20462;-64
2023/05/15 04:09:21;;;;;;;385.87;366.97;;;12.20;99.90;;;;;;5086338;28;20791;-64
2023/05/15 04:11:48;;;;;;;389.43;368.77;;;12.20;99.90;;;;;;5077248;28;20472;-64
2023/05/15 04:14:16;;;;;;;431.47;409.00;;;12.10;99.90;;;;;;5090457;28;20448;-64
2023/05/15 04:16:43;;;;;;;450.37;425.53;;;12.10;99.90;;;;;;5096961;28;20959;-63
2023/05/15 04:19:09;;;;;;;451.73;426.23;;;12.10;99.90;;;;;;5085682;28;20957;-63
2023/05/15 04:21:36;;;;;;;428.47;404.73;;;12.10;99.90;;;;;;5090870;28;20449;-65
2023/05/15 04:24:03;;;;;;;422.73;398.80;;;12.20;99.90;;;;;;5095518;28;20478;-64
2023/05/15 04:26:30;;;;;;;411.20;388.37;;;12.20;99.90;;;;;;5097360;28;20817;-67
2023/05/15 04:28:57;;;;;;;377.80;358.10;;;12.30;99.90;;;;;;5095241;28;20522;-66
2023/05/15 04:31:26;;;;;;;404.27;384.70;;;12.10;99.90;;;;;;5095160;28;20464;-69
2023/05/15 04:33:52;;;;;;;412.87;392.53;;;12.00;99.90;;;;;;5095622;28;20449;-68
2023/05/15 04:36:19;;;;;;;433.70;413.50;;;12.00;99.90;;;;;;5096887;28;20461;-66
2023/05/15 04:38:46;;;;;;;489.10;465.33;;;11.90;99.90;;;;;;5083669;28;20455;-66
2023/05/15 04:41:13;;;;;;;539.80;511.67;;;11.80;99.90;;;;;;5074492;28;20456;-66
2023/05/15 04:43:40;;;;;;;586.77;554.67;;;11.70;99.90;;;;;;5074535;28;20502;-66
2023/05/15 04:46:06;;;;;;;596.87;563.67;;;11.70;99.90;;;;;;5076734;28;20533;-66
2023/05/15 04:48:35;;;;;;;610.97;576.40;;;11.80;99.90;;;;;;5081932;28;20460;-64
2023/05/15 04:51:01;;;;;;;660.57;619.67;;;11.60;99.90;;;;;;5085527;28;20461;-64
2023/05/15 04:53:28;;;;;;;697.70;653.20;;;11.60;99.90;;;;;;5074022;28;20446;-64
2023/05/15 04:55:55;;;;;;;727.23;680.07;;;11.70;99.90;;;;;;5076406;28;20807;-64
2023/05/15 04:58:22;;;;;;;707.03;661.03;;;11.70;99.90;;;;;;5074924;28;20465;-64
2023/05/15 05:00:48;;;;;;;682.67;637.80;;;11.70;99.90;;;;;;5083336;28;20615;-64
2023/05/15 05:03:15;;;;;;;646.40;604.40;;;11.80;99.90;;;;;;5093527;28;20457;-64
2023/05/15 05:05:43;;;;;;;602.77;563.47;;;11.90;99.90;;;;;;5095689;28;20484;-64
2023/05/15 05:08:10;;;;;;;576.72;539.72;;;12.00;99.90;;;;;;5094077;28;20454;-64
2023/05/15 05:10:37;;;;;;;539.70;506.40;;;12.00;99.90;;;;;;5093173;28;20199;-64
2023/05/15 05:13:03;;;;;;;499.97;471.57;;;12.20;99.90;;;;;;5076258;28;20454;-65
2023/05/15 05:15:30;;;;;;;451.03;426.47;;;12.30;99.90;;;;;;5076291;28;20445;-64
2023/05/15 05:17:57;;;;;;;414.83;393.43;;;12.30;99.90;;;;;;5075072;28;20965;-64
2023/05/15 05:20:24;;;;;;;394.70;375.93;;;12.40;99.90;;;;;;5081736;28;20944;-66
2023/05/15 05:22:52;;;;;;;379.67;362.03;;;12.30;99.90;;;;;;5076624;28;20542;-66
2023/05/15 05:25:19;;;;;;;380.53;362.70;;;12.30;99.90;;;;;;5078434;28;20470;-68
2023/05/15 05:27:46;;;;;;;302.20;288.83;;;12.40;99.90;;;;;;5076471;28;20451;-68
2023/05/15 05:30:13;;;;;;;296.43;282.63;;;12.40;99.90;;;;;;5092645;28;20577;-67
2023/05/15 05:32:40;;;;;;;258.60;246.07;;;12.50;99.90;;;;;;5081304;28;20450;-66
2023/05/15 05:35:08;;;;;;;206.10;195.13;;;12.40;99.90;;;;;;5077371;28;20443;-66
2023/05/15 05:37:34;;;;;;;251.27;239.33;;;12.30;99.90;;;;;;5075754;28;20513;-66
2023/05/15 05:40:05;;;;;;;246.87;235.13;;;12.40;99.90;;;;;;5077471;28;20447;-66
2023/05/15 05:42:32;;;;;;;260.43;248.53;;;12.40;99.90;;;;;;5082041;28;20532;-67
2023/05/15 05:44:59;;;;;;;281.50;268.60;;;12.40;99.90;;;;;;5089396;28;20469;-66
2023/05/15 05:47:25;;;;;;;239.70;227.63;;;12.40;99.90;;;;;;5092924;28;20453;-66
2023/05/15 05:49:53;;;;;;;213.20;201.47;;;12.50;99.90;;;;;;5079812;28;20446;-66
2023/05/15 05:52:20;;;;;;;231.63;220.07;;;12.40;99.90;;;;;;5078189;28;20484;-66
2023/05/15 05:54:47;;;;;;;145.07;136.20;;;12.60;99.90;;;;;;5091116;28;20438;-66
2023/05/15 05:57:15;;;;;;;128.27;119.27;;;12.60;99.90;;;;;;5094974;28;20458;-66
2023/05/15 05:59:42;;;;;;;103.33;95.73;;;12.80;99.90;;;;;;5084096;28;20446;-67
2023/05/15 06:02:10;;;;;;;74.32;66.78;;;12.80;99.90;;;;;;5083707;28;20457;-66
2023/05/15 06:04:36;;;;;;;71.27;64.27;;;12.80;99.90;;;;;;5076608;28;20324;-66
2023/05/15 06:07:03;;;;;;;77.57;70.77;;;12.80;99.90;;;;;;5074974;28;20460;-66
2023/05/15 06:09:30;;;;;;;67.03;60.83;;;12.90;99.90;;;;;;5078665;28;20452;-66
2023/05/15 06:11:57;;;;;;;61.07;55.30;;;12.70;99.90;;;;;;5079260;28;20486;-66
2023/05/15 06:14:25;;;;;;;75.70;68.60;;;12.70;99.90;;;;;;5087543;28;20516;-66
2023/05/15 06:16:52;;;;;;;69.07;62.37;;;12.70;99.90;;;;;;5091764;28;20449;-66
2023/05/15 06:19:20;;;;;;;83.87;75.67;;;12.60;99.90;;;;;;5082917;28;20452;-66
2023/05/15 06:21:47;;;;;;;90.93;83.67;;;12.50;99.90;;;;;;5084417;28;20455;-67
2023/05/15 06:24:14;;;;;;;80.28;73.45;;;12.50;99.90;;;;;;5083870;28;21030;-66
2023/05/15 06:26:41;;;;;;;63.67;57.37;;;12.50;99.90;;;;;;5074444;28;20457;-66
2023/05/15 06:29:07;;;;;;;62.00;55.40;;;12.70;99.90;;;;;;5072977;28;20446;-66
2023/05/15 06:31:35;;;;;;;59.40;49.13;;;12.90;99.90;;;;;;5089416;28;20803;-67
2023/05/15 06:34:02;;;;;;;57.27;45.10;;;13.00;99.90;;;;;;5077593;28;20451;-66
2023/05/15 06:36:29;;;;;;;58.47;44.30;;;13.20;99.90;;;;;;5074231;28;20549;-66
2023/05/15 06:38:56;;;;;;;51.93;42.27;;;13.10;99.90;;;;;;5081012;28;20447;-66
2023/05/15 06:41:23;;;;;;;59.43;53.00;;;13.00;99.90;;;;;;5086758;28;20446;-66
2023/05/15 06:43:50;;;;;;;53.23;44.77;;;12.80;99.90;;;;;;5083189;28;20450;-67
2023/05/15 06:46:17;;;;;;;58.72;41.72;;;12.90;99.90;;;;;;5074494;28;20455;-67
2023/05/15 06:48:46;;;;;;;54.57;43.07;;;12.80;99.90;;;;;;5077151;28;20192;-67
2023/05/15 06:51:13;;;;;;;50.27;35.87;;;12.90;99.90;;;;;;5086748;28;20457;-64
2023/05/15 06:53:41;;;;;;;49.37;35.70;;;12.90;99.90;;;;;;5084967;28;20812;-64
2023/05/15 06:56:08;;;;;;;48.70;36.10;;;12.90;99.90;;;;;;5073596;28;20476;-64
2023/05/15 06:58:34;;;;;;;63.27;42.40;;;12.90;99.90;;;;;;5073616;28;20446;-64
2023/05/15 07:01:02;;;;;;;52.92;43.17;;;13.10;99.90;;;;;;5080950;28;20446;-64
2023/05/15 07:03:29;;;;;;;55.47;39.80;;;12.90;99.90;;;;;;5088219;28;20252;-64
2023/05/15 07:05:58;;;;;;;49.23;38.27;;;12.80;99.90;;;;;;5093515;28;20481;-66
2023/05/15 07:08:25;;;;;;;48.93;39.20;;;12.90;99.90;;;;;;5090715;28;20472;-66
2023/05/15 07:10:53;;;;;;;43.53;33.73;;;12.90;99.90;;;;;;5089467;28;20883;-66
2023/05/15 07:13:21;;;;;;;46.47;32.47;;;13.00;99.90;;;;;;5091379;28;20814;-66
2023/05/15 07:15:47;;;;;;;42.87;31.97;;;13.10;99.90;;;;;;5093654;28;20449;-66
2023/05/15 07:18:14;;;;;;;50.53;28.47;;;13.30;99.90;;;;;;5091565;28;20453;-66
2023/05/15 07:20:41;;;;;;;48.47;32.23;;;13.40;99.90;;;;;;5090817;28;20450;-64
2023/05/15 07:23:09;;;;;;;46.03;28.93;;;13.60;99.90;;;;;;5071284;28;20450;-64
2023/05/15 07:25:36;;;;;;;40.73;24.57;;;13.70;99.90;;;;;;5073306;28;20506;-64
2023/05/15 07:28:03;;;;;;;39.80;29.37;;;13.80;99.90;;;;;;5071667;28;20458;-63
2023/05/15 07:30:29;;;;;;;42.90;26.90;;;13.90;99.90;;;;;;5070278;28;20945;-64
2023/05/15 07:32:56;;;;;;;46.17;28.63;;;14.00;99.90;;;;;;5070609;28;20812;-64
2023/05/15 07:35:23;;;;;;;38.20;26.03;;;13.80;99.90;;;;;;5072580;28;20537;-63
2023/05/15 07:37:50;;;;;;;39.87;26.87;;;13.90;99.90;;;;;;5071800;28;20454;-64
2023/05/15 07:40:19;;;;;;;38.17;27.03;;;13.80;99.90;;;;;;5070307;28;21045;-64
2023/05/15 07:42:46;;;;;;;43.05;28.50;;;14.10;99.90;;;;;;5070692;28;20801;-63
2023/05/15 07:45:13;;;;;;;41.95;29.27;;;13.90;99.90;;;;;;5072149;28;20456;-64
2023/05/15 07:47:45;;;;;;;44.67;27.50;;;14.00;99.90;;;;;;5072257;28;20203;-64
2023/05/15 07:50:12;;;;;;;38.60;26.80;;;14.20;99.90;;;;;;5070973;28;20485;-63
2023/05/15 07:52:39;;;;;;;44.50;26.37;;;14.00;99.90;;;;;;5071396;28;20796;-63
2023/05/15 07:55:06;;;;;;;40.03;26.40;;;14.40;99.90;;;;;;5072656;28;20454;-64
2023/05/15 07:57:35;;;;;;;38.23;23.57;;;14.50;99.90;;;;;;5072557;28;20460;-63
2023/05/15 08:00:09;;;;;;;40.83;24.67;;;14.60;99.90;;;;;;5070926;28;20456;-64
2023/05/15 08:02:36;;;;;;;41.97;27.27;;;14.90;99.90;;;;;;5070856;28;20467;-63
2023/05/15 08:05:03;;;;;;;37.43;26.53;;;14.80;99.90;;;;;;5072274;28;20479;-64
2023/05/15 08:07:31;;;;;;;38.20;25.00;;;14.90;99.90;;;;;;5072257;28;20953;-64
2023/05/15 08:09:58;;;;;;;39.37;24.03;;;15.20;99.90;;;;;;5071004;28;20829;-64
2023/05/15 08:12:26;;;;;;;38.07;23.40;;;15.60;99.90;;;;;;5071178;28;20755;-64
2023/05/15 08:14:55;;;;;;;34.77;22.70;;;15.50;99.90;;;;;;5072033;28;20465;-63
2023/05/15 08:17:23;;;;;;;29.60;16.37;;;15.80;99.90;;;;;;5072305;28;20462;-64
2023/05/15 08:19:50;;;;;;;32.73;22.27;;;15.80;99.90;;;;;;5070797;28;20479;-64
2023/05/15 08:22:16;;;;;;;33.77;23.77;;;16.30;99.90;;;;;;5071194;28;20454;-63
2023/05/15 08:24:44;;;;;;;45.73;26.23;;;16.10;99.90;;;;;;5071834;28;20479;-63
2023/05/15 08:27:10;;;;;;;39.47;25.30;;;16.40;99.90;;;;;;5073092;28;20458;-64
2023/05/15 08:29:38;;;;;;;33.13;22.20;;;16.50;99.90;;;;;;5070576;28;20804;-64
2023/05/15 08:32:08;;;;;;;34.00;23.70;;;16.70;99.90;;;;;;5070777;28;20458;-64
2023/05/15 08:34:35;;;;;;;29.40;21.90;;;17.00;99.90;;;;;;5071981;28;20454;-64
2023/05/15 08:37:02;;;;;;;27.43;18.53;;;17.40;98.20;;;;;;5072590;28;20454;-64
2023/05/15 08:39:28;;;;;;;30.00;20.70;;;17.40;96.20;;;;;;5070811;28;20453;-64
2023/05/15 08:42:00;;;;;;;32.83;21.80;;;17.70;96.10;;;;;;5071695;28;20455;-64
2023/05/15 08:44:27;;;;;;;34.33;21.50;;;18.10;97.70;;;;;;5075224;28;20906;-64
2023/05/15 08:46:55;;;;;;;28.33;21.27;;;17.60;94.60;;;;;;5076333;28;20444;-64
2023/05/15 08:49:41;;;;;;;34.58;17.50;;;18.00;96.70;;;;;;5074684;28;20938;-64
2023/05/15 08:52:09;;;;;;;31.90;21.40;;;17.50;92.40;;;;;;5074278;28;20214;-63
2023/05/15 08:54:36;;;;;;;30.77;21.40;;;17.80;93.90;;;;;;5075080;28;20545;-64
2023/05/15 08:57:04;;;;;;;30.97;21.83;;;18.50;92.30;;;;;;5075653;28;20457;-64
2023/05/15 08:59:31;;;;;;;26.70;19.05;;;18.60;92.20;;;;;;5074285;28;20937;-64
2023/05/15 09:01:58;;;;;;;27.73;18.75;;;18.70;92.80;;;;;;5073896;28;20197;-64
2023/05/15 09:04:26;;;;;;;27.07;21.57;;;18.30;91.00;;;;;;5074657;28;20677;-64
2023/05/15 09:06:53;;;;;;;28.43;21.33;;;18.40;92.50;;;;;;5075523;28;20485;-64
2023/05/15 09:09:20;;;;;;;25.05;19.55;;;18.20;90.20;;;;;;5073867;28;20459;-64
2023/05/15 09:11:48;;;;;;;37.20;19.80;;;18.70;91.80;;;;;;5073521;28;20199;-64
2023/05/15 09:14:15;;;;;;;29.07;21.40;;;18.60;90.70;;;;;;5074388;28;20453;-64
2023/05/15 09:16:42;;;;;;;30.37;22.00;;;18.20;90.00;;;;;;5075656;28;20462;-64
2023/05/15 09:19:10;;;;;;;29.35;21.73;;;18.30;87.90;;;;;;5073777;28;20450;-64
2023/05/15 09:21:38;;;;;;;30.43;21.97;;;18.40;87.50;;;;;;5073529;28;20219;-64
2023/05/15 09:24:20;;;;;;;27.77;20.27;;;18.40;89.90;;;;;;5074262;28;20941;-64
2023/05/15 09:27:01;;;;;;;26.40;18.58;;;18.10;88.60;;;;;;5075580;28;20470;-64
2023/05/15 09:29:29;;;;;;;23.87;17.67;;;18.30;86.10;;;;;;5073590;28;20203;-64
2023/05/15 09:31:56;;;;;;;27.90;19.37;;;18.90;81.70;;;;;;5073405;28;20455;-64
2023/05/15 09:34:30;;;;;;;25.30;19.63;;;19.30;82.40;;;;;;5074154;28;20459;-64
2023/05/15 09:36:58;;;;;;;34.27;20.03;;;19.10;77.30;;;;;;5075438;28;20486;-64
2023/05/15 09:39:25;;;;;;;23.30;19.33;;;19.40;80.20;;;;;;5073657;28;20450;-64
2023/05/15 09:41:53;;;;;;;29.50;20.87;;;18.90;79.60;;;;;;5073201;28;20194;-64
2023/05/15 09:44:24;;;;;;;30.93;21.40;;;19.00;82.20;;;;;;5073940;28;20452;-64
2023/05/15 09:46:51;;;;;;;23.10;16.60;;;19.20;78.60;;;;;;5074591;28;20459;-64
2023/05/15 09:49:17;;;;;;;29.55;21.17;;;19.20;77.70;;;;;;5073055;28;20948;-64
2023/05/15 09:51:45;;;;;;;27.70;18.70;;;19.30;83.70;;;;;;5073245;28;20219;-64
2023/05/15 09:54:17;;;;;;;22.80;16.58;;;19.50;79.30;;;;;;5073486;28;20734;-64
2023/05/15 09:56:45;;;;;;;25.10;17.50;;;19.90;74.30;;;;;;5074769;28;20621;-64
2023/05/15 09:59:14;;;;;;;27.27;19.97;;;19.50;69.60;;;;;;5073067;28;21027;-64
2023/05/15 10:01:43;;;;;;;26.37;18.87;;;19.90;71.10;;;;;;5072970;28;20511;-64
2023/05/15 10:04:11;;;;;;;35.47;20.87;;;20.30;70.40;;;;;;5073603;28;20825;-64
2023/05/15 10:06:39;;;;;;;26.45;18.35;;;20.30;67.70;;;;;;5074610;28;20500;-64
2023/05/15 10:09:07;;;;;;;22.20;17.43;;;20.60;62.40;;;;;;5072723;28;20290;-64
2023/05/15 10:11:38;;;;;;;27.10;16.47;;;20.30;58.00;;;;;;5083738;28;20448;-65
2023/05/15 10:14:06;;;;;;;21.60;13.60;;;20.60;67.80;;;;;;5093234;28;20951;-65
2023/05/15 10:16:34;;;;;;;30.10;17.67;;;19.90;60.40;;;;;;5094824;28;20546;-65
2023/05/15 10:19:04;;;;;;;22.00;16.13;;;20.20;62.00;;;;;;5092895;28;20791;-65
2023/05/15 10:21:33;;;;;;;21.17;14.00;;;20.10;55.70;;;;;;5092410;28;20955;-65
2023/05/15 10:24:00;;;;;;;24.00;16.50;;;20.10;57.00;;;;;;5092958;28;20472;-65
2023/05/15 10:26:35;;;;;;;21.87;15.57;;;20.20;59.40;;;;;;5094474;28;20474;-66
2023/05/15 10:29:05;;;;;;;23.07;16.57;;;20.70;64.00;;;;;;5092469;28;20935;-67
2023/05/15 10:31:33;;;;;;;20.50;15.33;;;21.40;54.50;;;;;;5092444;28;20449;-67
2023/05/15 10:34:01;;;;;;;20.33;14.23;;;21.00;56.90;;;;;;5092726;28;20457;-67
2023/05/15 10:36:28;;;;;;;22.33;15.48;;;21.10;54.20;;;;;;5094945;28;20804;-65
2023/05/15 10:38:55;;;;;;;18.00;13.17;;;20.30;53.50;;;;;;5091522;28;20204;-65
2023/05/15 10:41:23;;;;;;;18.37;15.20;;;20.60;53.80;;;;;;5090804;28;20449;-65
2023/05/15 10:43:53;;;;;;;20.80;13.77;;;20.90;45.20;;;;;;5091215;28;20453;-65
2023/05/15 10:46:21;;;;;;;19.10;13.30;;;21.10;45.80;;;;;;5094379;28;20474;-65
2023/05/15 10:48:48;;;;;;;17.07;11.87;;;21.10;42.60;;;;;;5091569;28;20454;-66
2023/05/15 10:51:17;;;;;;;18.85;14.20;;;20.80;47.30;;;;;;5091033;28;20956;-65
2023/05/15 10:53:44;;;;;;;18.37;13.10;;;21.20;42.40;;;;;;5091819;28;20341;-66
2023/05/15 10:56:14;;;;;;;17.67;13.27;;;21.10;41.40;;;;;;5094564;28;20446;-66
2023/05/15 10:58:46;;;;;;;18.03;14.33;;;21.10;38.70;;;;;;5091785;28;20480;-65
2023/05/15 11:01:27;;;;;;;19.33;13.00;;;21.50;45.60;;;;;;5091541;28;20457;-65
2023/05/15 11:04:06;;;;;;;18.70;11.53;;;21.90;34.70;;;;;;5091267;28;20458;-66
2023/05/15 11:06:33;;;;;;;17.20;13.30;;;22.00;31.60;;;;;;5093861;28;20477;-66
2023/05/15 11:09:33;;;;;;;17.80;13.13;;;22.20;46.40;;;;;;5091489;28;20862;-66
2023/05/15 11:12:00;;;;;;;19.17;13.13;;;22.10;36.30;;;;;;5090600;28;20449;-66
2023/05/15 11:14:28;;;;;;;18.13;12.50;;;22.10;41.30;;;;;;5092033;28;20451;-65
2023/05/15 11:17:04;;;;;;;16.90;10.23;;;22.40;36.30;;;;;;5093695;28;20441;-66
2023/05/15 11:19:53;;;;;;;22.40;13.50;;;21.80;33.30;;;;;;5091401;28;20510;-66
2023/05/15 11:22:22;;;;;;;14.43;11.23;;;21.50;37.60;;;;;;5087517;28;20457;-65
2023/05/15 11:24:54;;;;;;;19.77;11.67;;;22.20;29.70;;;;;;5092440;28;20445;-65
2023/05/15 11:27:23;;;;;;;16.20;11.63;;;22.50;27.90;;;;;;5092529;28;20477;-66
2023/05/15 11:30:13;;;;;;;18.37;13.20;;;22.20;30.90;;;;;;5090765;28;20460;-66
2023/05/15 11:32:43;;;;;;;16.03;11.50;;;22.10;32.00;;;;;;5091132;28;20522;-65
2023/05/15 11:35:10;;;;;;;16.83;12.60;;;22.00;28.20;;;;;;5092605;28;20457;-65
2023/05/15 11:37:41;;;;;;;15.23;10.50;;;22.60;24.70;;;;;;5092485;28;20456;-65
2023/05/15 11:40:12;;;;;;;19.03;11.40;;;22.40;21.40;;;;;;5090414;28;20476;-65
2023/05/15 11:42:40;;;;;;;14.50;11.10;;;23.00;29.20;;;;;;5091206;28;20449;-65
2023/05/15 11:45:09;;;;;;;13.90;11.33;;;23.10;23.20;;;;;;5092541;28;20456;-66
2023/05/15 11:47:36;;;;;;;19.83;13.07;;;22.40;22.40;;;;;;5092369;28;20531;-65
2023/05/15 11:50:06;;;;;;;16.33;11.70;;;22.80;26.50;;;;;;5091356;28;20842;-65
2023/05/15 11:52:33;;;;;;;16.27;11.50;;;23.90;25.40;;;;;;5090320;28;20446;-66
2023/05/15 11:55:00;;;;;;;14.67;11.73;;;23.60;22.30;;;;;;5092615;28;20445;-66
2023/05/15 11:57:27;;;;;;;14.80;12.30;;;23.70;32.50;;;;;;5092673;28;20445;-66
2023/05/15 11:59:57;;;;;;;16.70;12.47;;;23.10;22.90;;;;;;5091083;28;20801;-66
2023/05/15 12:02:24;;;;;;;18.27;14.27;;;22.80;24.00;;;;;;5091178;28;20943;-66
2023/05/15 12:04:51;;;;;;;18.33;13.40;;;23.50;25.10;;;;;;5092257;28;20453;-66
2023/05/15 12:07:19;;;;;;;19.47;14.10;;;24.20;25.50;;;;;;5092530;28;20464;-66
2023/05/15 12:09:51;;;;;;;16.83;13.57;;;23.90;22.50;;;;;;5091590;28;20450;-66
2023/05/15 12:12:19;;;;;;;13.25;11.10;;;23.50;27.00;;;;;;5091484;28;20452;-66
2023/05/15 12:14:46;;;;;;;18.03;13.97;;;24.00;22.60;;;;;;5092216;28;20320;-66
2023/05/15 12:17:13;;;;;;;17.30;12.53;;;24.20;15.20;;;;;;5096389;28;20461;-66
2023/05/15 12:19:40;;;;;;;16.40;11.32;;;24.90;11.30;;;;;;5095775;28;20459;-66
2023/05/15 12:22:07;;;;;;;18.37;13.20;;;25.30;13.00;;;;;;5095875;28;20196;-66
2023/05/15 12:24:40;;;;;;;18.63;12.07;;;24.90;15.70;;;;;;5096347;28;20499;-67